Time,TemperatureF,DewpointF,PressureIn,WindDirection,WindDirectionDegrees,WindSpeedMPH,WindSpeedGustMPH,Humidity,HourlyPrecipIn,Conditions,Clouds,dailyrainin,SoftwareType,DateUTC
2013-01-20 00:00:00,52.7,24.0,30.13,West,273,0.0,0.0,33,0.00,,,0.00,weatherlink.com 1.10,2013-01-20 07:00:00,
2013-01-20 00:16:00,52.2,24.0,30.13,NNE,20,0.0,1.0,34,0.00,,,0.00,weatherlink.com 1.10,2013-01-20 07:16:00,
2013-01-20 00:31:00,53.6,23.0,30.13,NE,53,0.0,3.0,30,0.00,,,0.00,weatherlink.com 1.10,2013-01-20 07:31:00,
2013-01-20 00:46:00,52.1,24.0,30.13,NW,323,0.0,1.0,33,0.00,,,0.00,weatherlink.com 1.10,2013-01-20 07:46:00,
2013-01-20 01:01:00,49.1,24.0,30.13,NW,323,0.0,0.0,37,0.00,,,0.00,weatherlink.com 1.10,2013-01-20 08:01:00,
2013-01-20 01:16:00,46.7,23.0,30.13,NW,323,0.0,0.0,39,0.00,,,0.00,weatherlink.com 1.10,2013-01-20 08:16:00,
2013-01-20 01:31:00,48.5,23.0,30.13,NNW,329,0.0,1.0,37,0.00,,,0.00,weatherlink.com 1.10,2013-01-20 08:31:00,
2013-01-20 01:46:00,47.8,22.0,30.13,North,9,1.0,1.0,36,0.00,,,0.00,weatherlink.com 1.10,2013-01-20 08:46:00,
2013-01-20 02:01:00,51.6,22.0,30.12,NNE,25,0.0,1.0,31,0.00,,,0.00,weatherlink.com 1.10,2013-01-20 09:01:00,
2013-01-20 02:16:00,52.0,20.0,30.12,NE,56,0.0,1.0,28,0.00,,,0.00,weatherlink.com 1.10,2013-01-20 09:16:00,
2013-01-20 02:31:00,51.9,20.0,30.13,NE,56,0.0,0.0,29,0.00,,,0.00,weatherlink.com 1.10,2013-01-20 09:31:00,
2013-01-20 02:46:00,50.7,20.0,30.13,NE,54,0.0,0.0,30,0.00,,,0.00,weatherlink.com 1.10,2013-01-20 09:46:00,
2013-01-20 03:01:00,52.5,19.0,30.12,NNE,18,1.0,4.0,27,0.00,,,0.00,weatherlink.com 1.10,2013-01-20 10:01:00,
2013-01-20 03:16:00,54.7,18.0,30.12,North,1,4.0,7.0,24,0.00,,,0.00,weatherlink.com 1.10,2013-01-20 10:16:00,
2013-01-20 03:31:00,55.9,18.0,30.11,NE,40,5.0,10.0,23,0.00,,,0.00,weatherlink.com 1.10,2013-01-20 10:31:00,
2013-01-20 03:46:00,56.4,18.0,30.11,ENE,64,5.0,10.0,22,0.00,,,0.00,weatherlink.com 1.10,2013-01-20 10:46:00,
2013-01-20 04:01:00,56.0,18.0,30.11,NNE,12,4.0,8.0,23,0.00,,,0.00,weatherlink.com 1.10,2013-01-20 11:01:00,
2013-01-20 04:16:00,55.7,18.0,30.11,NE,39,8.0,9.0,23,0.00,,,0.00,weatherlink.com 1.10,2013-01-20 11:16:00,
2013-01-20 04:31:00,55.4,18.0,30.11,NE,53,5.0,7.0,23,0.00,,,0.00,weatherlink.com 1.10,2013-01-20 11:31:00,
2013-01-20 04:46:00,54.8,18.0,30.11,NE,50,3.0,8.0,24,0.00,,,0.00,weatherlink.com 1.10,2013-01-20 11:46:00,
2013-01-20 05:01:00,54.5,18.0,30.11,NNE,32,5.0,7.0,24,0.00,,,0.00,weatherlink.com 1.10,2013-01-20 12:01:00,
2013-01-20 05:16:00,54.5,18.0,30.11,NE,37,2.0,6.0,24,0.00,,,0.00,weatherlink.com 1.10,2013-01-20 12:16:00,
2013-01-20 05:31:00,54.3,17.0,30.11,NE,46,4.0,6.0,23,0.00,,,0.00,weatherlink.com 1.10,2013-01-20 12:31:00,
2013-01-20 06:01:00,53.7,18.0,30.11,North,11,4.0,7.0,24,0.00,,,0.00,weatherlink.com 1.10,2013-01-20 13:01:00,
2013-01-20 06:16:00,53.4,17.0,30.12,NE,44,5.0,7.0,24,0.00,,,0.00,weatherlink.com 1.10,2013-01-20 13:16:00,
2013-01-20 06:31:00,53.4,17.0,30.12,NE,49,4.0,8.0,24,0.00,,,0.00,weatherlink.com 1.10,2013-01-20 13:31:00,
2013-01-20 06:46:00,53.0,17.0,30.12,NNE,23,4.0,8.0,24,0.00,,,0.00,weatherlink.com 1.10,2013-01-20 13:46:00,
2013-01-20 07:01:00,52.9,17.0,30.12,ENE,60,5.0,7.0,24,0.00,,,0.00,weatherlink.com 1.10,2013-01-20 14:01:00,
2013-01-20 07:16:00,52.9,17.0,30.12,NNE,20,7.0,7.0,24,0.00,,,0.00,weatherlink.com 1.10,2013-01-20 14:16:00,
2013-01-20 07:32:00,53.1,17.0,30.12,NE,44,4.0,7.0,24,0.00,,,0.00,weatherlink.com 1.10,2013-01-20 14:32:00,
2013-01-20 07:47:00,53.3,17.0,30.12,NNE,27,6.0,8.0,24,0.00,,,0.00,weatherlink.com 1.10,2013-01-20 14:47:00,
2013-01-20 08:02:00,53.3,17.0,30.13,NNE,18,2.0,9.0,24,0.00,,,0.00,weatherlink.com 1.10,2013-01-20 15:02:00,
2013-01-20 08:17:00,53.6,17.0,30.13,NE,53,5.0,9.0,24,0.00,,,0.00,weatherlink.com 1.10,2013-01-20 15:17:00,
2013-01-20 08:31:00,53.9,18.0,30.13,NE,47,5.0,9.0,24,0.00,,,0.00,weatherlink.com 1.10,2013-01-20 15:31:00,
2013-01-20 08:46:00,54.3,17.0,30.13,NE,37,5.0,9.0,23,0.00,,,0.00,weatherlink.com 1.10,2013-01-20 15:46:00,
2013-01-20 09:01:00,55.3,18.0,30.14,NE,39,6.0,9.0,23,0.00,,,0.00,weatherlink.com 1.10,2013-01-20 16:01:00,
2013-01-20 09:17:00,56.3,19.0,30.14,NE,37,7.0,8.0,23,0.00,,,0.00,weatherlink.com 1.10,2013-01-20 16:17:00,
2013-01-20 09:31:00,57.1,18.0,30.14,NNE,22,5.0,9.0,22,0.00,,,0.00,weatherlink.com 1.10,2013-01-20 16:31:00,
2013-01-20 09:46:00,58.1,19.0,30.14,NNW,336,2.0,7.0,22,0.00,,,0.00,weatherlink.com 1.10,2013-01-20 16:46:00,
2013-01-20 10:01:00,58.9,19.0,30.15,NNE,22,9.0,9.0,21,0.00,,,0.00,weatherlink.com 1.10,2013-01-20 17:01:00,
2013-01-20 10:17:00,59.9,20.0,30.15,NNE,12,5.0,10.0,21,0.00,,,0.00,weatherlink.com 1.10,2013-01-20 17:17:00,
2013-01-20 10:31:00,60.6,19.0,30.15,NE,49,3.0,9.0,20,0.00,,,0.00,weatherlink.com 1.10,2013-01-20 17:31:00,
2013-01-20 10:46:00,61.6,20.0,30.15,NE,37,10.0,10.0,20,0.00,,,0.00,weatherlink.com 1.10,2013-01-20 17:46:00,
2013-01-20 11:01:00,62.6,21.0,30.15,NNE,23,4.0,9.0,20,0.00,,,0.00,weatherlink.com 1.10,2013-01-20 18:01:00,
2013-01-20 11:32:00,65.0,22.0,30.14,NE,49,2.0,7.0,19,0.00,,,0.00,weatherlink.com 1.10,2013-01-20 18:32:00,
2013-01-20 11:47:00,65.5,21.0,30.14,ENE,57,6.0,9.0,18,0.00,,,0.00,weatherlink.com 1.10,2013-01-20 18:47:00,
2013-01-20 12:02:00,67.2,21.0,30.13,NNE,23,4.0,7.0,17,0.00,,,0.00,weatherlink.com 1.10,2013-01-20 19:02:00,
2013-01-20 12:16:00,68.7,19.0,30.11,NE,56,3.0,11.0,15,0.00,,,0.00,weatherlink.com 1.10,2013-01-20 19:16:00,
2013-01-20 12:32:00,68.6,19.0,30.10,NNE,20,8.0,10.0,15,0.00,,,0.00,weatherlink.com 1.10,2013-01-20 19:32:00,
2013-01-20 12:47:00,69.0,21.0,30.09,NNE,29,8.0,9.0,16,0.00,,,0.00,weatherlink.com 1.10,2013-01-20 19:47:00,
2013-01-20 13:02:00,69.2,20.0,30.08,NE,53,5.0,10.0,15,0.00,,,0.00,weatherlink.com 1.10,2013-01-20 20:02:00,
2013-01-20 13:17:00,69.4,20.0,30.07,NW,323,7.0,9.0,15,0.00,,,0.00,weatherlink.com 1.10,2013-01-20 20:17:00,
2013-01-20 13:32:00,70.0,20.0,30.06,NNE,12,4.0,13.0,15,0.00,,,0.00,weatherlink.com 1.10,2013-01-20 20:32:00,
2013-01-20 14:02:00,71.1,19.0,30.05,NE,39,5.0,14.0,14,0.00,,,0.00,weatherlink.com 1.10,2013-01-20 21:02:00,
2013-01-20 14:18:00,71.3,20.0,30.05,NE,39,5.0,11.0,14,0.00,,,0.00,weatherlink.com 1.10,2013-01-20 21:18:00,
2013-01-20 14:33:00,71.5,20.0,30.04,NNW,345,9.0,11.0,14,0.00,,,0.00,weatherlink.com 1.10,2013-01-20 21:33:00,
2013-01-20 14:48:00,72.2,22.0,30.04,North,8,3.0,10.0,15,0.00,,,0.00,weatherlink.com 1.10,2013-01-20 21:48:00,
2013-01-20 15:02:00,72.4,19.0,30.04,NNW,347,5.0,8.0,13,0.00,,,0.00,weatherlink.com 1.10,2013-01-20 22:02:00,
2013-01-20 15:17:00,72.8,21.0,30.03,NW,315,3.0,12.0,14,0.00,,,0.00,weatherlink.com 1.10,2013-01-20 22:17:00,
2013-01-20 15:33:00,73.1,19.0,30.02,North,354,8.0,12.0,13,0.00,,,0.00,weatherlink.com 1.10,2013-01-20 22:33:00,
2013-01-20 15:48:00,73.5,21.0,30.02,WNW,303,4.0,10.0,14,0.00,,,0.00,weatherlink.com 1.10,2013-01-20 22:48:00,
2013-01-20 16:02:00,73.6,20.0,30.01,NW,323,5.0,9.0,13,0.00,,,0.00,weatherlink.com 1.10,2013-01-20 23:02:00,
2013-01-20 16:18:00,73.7,20.0,30.02,North,356,3.0,9.0,13,0.00,,,0.00,weatherlink.com 1.10,2013-01-20 23:18:00,
2013-01-20 16:33:00,73.3,23.0,30.02,NNE,29,2.0,8.0,15,0.00,,,0.00,weatherlink.com 1.10,2013-01-20 23:33:00,
2013-01-20 16:48:00,71.8,23.0,30.02,WNW,285,3.0,8.0,16,0.00,,,0.00,weatherlink.com 1.10,2013-01-20 23:48:00,
2013-01-20 17:03:00,71.1,24.0,30.01,NW,314,3.0,9.0,17,0.00,,,0.00,weatherlink.com 1.10,2013-01-21 00:03:00,
2013-01-20 17:18:00,70.4,25.0,30.01,NNW,332,5.0,7.0,18,0.00,,,0.00,weatherlink.com 1.10,2013-01-21 00:18:00,
2013-01-20 17:33:00,69.6,24.0,30.01,NNW,329,3.0,8.0,18,0.00,,,0.00,weatherlink.com 1.10,2013-01-21 00:33:00,
2013-01-20 17:48:00,68.8,23.0,30.02,NW,319,3.0,5.0,18,0.00,,,0.00,weatherlink.com 1.10,2013-01-21 00:48:00,
2013-01-20 18:03:00,67.6,22.0,30.02,NW,324,1.0,2.0,18,0.00,,,0.00,weatherlink.com 1.10,2013-01-21 01:03:00,
2013-01-20 18:18:00,65.9,22.0,30.02,NW,311,0.0,3.0,19,0.00,,,0.00,weatherlink.com 1.10,2013-01-21 01:18:00,
2013-01-20 18:33:00,64.5,22.0,30.02,NW,312,0.0,1.0,20,0.00,,,0.00,weatherlink.com 1.10,2013-01-21 01:33:00,
2013-01-20 18:48:00,61.8,22.0,30.03,SW,225,0.0,0.0,22,0.00,,,0.00,weatherlink.com 1.10,2013-01-21 01:48:00,
2013-01-20 19:03:00,60.3,22.0,30.03,SW,225,0.0,0.0,23,0.00,,,0.00,weatherlink.com 1.10,2013-01-21 02:03:00,
2013-01-20 19:19:00,58.8,22.0,30.03,SW,225,0.0,0.0,24,0.00,,,0.00,weatherlink.com 1.10,2013-01-21 02:19:00,
2013-01-20 19:33:00,59.2,22.0,30.03,SW,227,0.0,0.0,24,0.00,,,0.00,weatherlink.com 1.10,2013-01-21 02:33:00,
2013-01-20 19:48:00,59.7,23.0,30.04,SW,228,0.0,0.0,24,0.00,,,0.00,weatherlink.com 1.10,2013-01-21 02:48:00,
2013-01-20 20:03:00,57.6,22.0,30.04,SW,226,0.0,0.0,25,0.00,,,0.00,weatherlink.com 1.10,2013-01-21 03:03:00,
2013-01-20 20:18:00,57.3,22.0,30.04,SW,226,0.0,0.0,25,0.00,,,0.00,weatherlink.com 1.10,2013-01-21 03:18:00,
2013-01-20 20:33:00,56.5,22.0,30.05,SW,228,0.0,0.0,26,0.00,,,0.00,weatherlink.com 1.10,2013-01-21 03:33:00,
2013-01-20 20:48:00,55.6,21.0,30.05,SW,219,0.0,0.0,26,0.00,,,0.00,weatherlink.com 1.10,2013-01-21 03:48:00,
2013-01-20 21:03:00,55.6,22.0,30.05,SW,219,0.0,0.0,27,0.00,,,0.00,weatherlink.com 1.10,2013-01-21 04:03:00,
2013-01-20 21:18:00,55.0,22.0,30.05,SW,219,0.0,0.0,28,0.00,,,0.00,weatherlink.com 1.10,2013-01-21 04:18:00,
2013-01-20 21:33:00,53.4,23.0,30.05,SW,219,0.0,0.0,30,0.00,,,0.00,weatherlink.com 1.10,2013-01-21 04:33:00,
2013-01-20 21:48:00,51.8,22.0,30.06,SW,219,0.0,0.0,31,0.00,,,0.00,weatherlink.com 1.10,2013-01-21 04:48:00,
2013-01-20 22:03:00,53.3,23.0,30.06,SW,221,0.0,0.0,31,0.00,,,0.00,weatherlink.com 1.10,2013-01-21 05:03:00,
2013-01-20 22:18:00,51.8,22.0,30.06,SW,219,0.0,0.0,31,0.00,,,0.00,weatherlink.com 1.10,2013-01-21 05:18:00,
2013-01-20 22:33:00,51.7,21.0,30.06,SW,220,0.0,0.0,30,0.00,,,0.00,weatherlink.com 1.10,2013-01-21 05:33:00,
2013-01-20 22:48:00,54.1,21.0,30.07,SW,222,0.0,0.0,28,0.00,,,0.00,weatherlink.com 1.10,2013-01-21 05:48:00,
2013-01-20 23:03:00,55.4,20.0,30.07,NW,307,0.0,1.0,25,0.00,,,0.00,weatherlink.com 1.10,2013-01-21 06:03:00,
2013-01-20 23:18:00,55.9,19.0,30.06,NW,307,1.0,2.0,24,0.00,,,0.00,weatherlink.com 1.10,2013-01-21 06:18:00,
2013-01-20 23:33:00,55.7,20.0,30.06,NW,307,0.0,1.0,25,0.00,,,0.00,weatherlink.com 1.10,2013-01-21 06:33:00,
2013-01-20 23:48:00,51.9,21.0,30.05,NW,307,0.0,0.0,30,0.00,,,0.00,weatherlink.com 1.10,2013-01-21 06:48:00,